Time;durP1;ratioP1;P1;durP2;ratioP2;P2;SDS_P1;SDS_P2;PMS_P1;PMS_P2;Temp;Humidity;BMP_temperature;BMP_pressure;BME280_temperature;BME280_humidity;BME280_pressure;Samples;Min_cycle;Max_cycle;Signal;HPM_P1;HPM_P2
2021/03/13 00:00:46;;;;;;;4.60;1.30;;;;;;;8.32;40.10;99900.78;5107189;28;20043;-78
2021/03/13 00:03:14;;;;;;;4.75;1.38;;;;;;;8.33;40.11;99888.88;5074059;28;20494;-79
2021/03/13 00:05:43;;;;;;;6.78;2.00;;;;;;;8.32;40.31;99888.00;5064477;28;20041;-78
2021/03/13 00:08:13;;;;;;;5.18;1.30;;;;;;;8.33;40.18;99877.97;5064290;28;20430;-79
2021/03/13 00:10:43;;;;;;;5.55;1.27;;;;;;;8.33;40.23;99873.38;5080642;28;20532;-79
2021/03/13 00:13:11;;;;;;;2.90;1.10;;;;;;;8.35;40.18;99868.66;5073854;28;20177;-79
2021/03/13 00:15:40;;;;;;;5.63;1.58;;;;;;;8.36;40.22;99870.41;5086526;28;20044;-79
2021/03/13 00:18:08;;;;;;;3.15;1.33;;;;;;;8.36;40.21;99866.81;5067086;28;20044;-79
2021/03/13 00:20:37;;;;;;;4.90;1.45;;;;;;;8.38;40.20;99868.41;5076175;28;20114;-79
2021/03/13 00:23:05;;;;;;;3.83;1.33;;;;;;;8.39;40.21;99863.81;5087657;28;20041;-79
2021/03/13 00:25:34;;;;;;;5.47;1.38;;;;;;;8.41;40.24;99856.31;5068495;28;20483;-79
2021/03/13 00:28:05;;;;;;;4.53;1.88;;;;;;;8.42;40.24;99864.38;5073306;28;20123;-79
2021/03/13 00:30:34;;;;;;;4.00;1.40;;;;;;;8.40;40.22;99869.09;5059463;28;20492;-79
2021/03/13 00:33:03;;;;;;;4.60;1.30;;;;;;;8.44;40.25;99872.44;5067904;28;20119;-79
2021/03/13 00:35:32;;;;;;;6.35;1.75;;;;;;;8.43;40.36;99862.50;5074724;28;20028;-79
2021/03/13 00:38:01;;;;;;;2.47;1.13;;;;;;;8.46;40.50;99860.41;5096838;28;20510;-75
2021/03/13 00:40:31;;;;;;;3.28;1.30;;;;;;;8.46;40.84;99849.50;5099341;28;20036;-76
2021/03/13 00:43:00;;;;;;;3.08;0.80;;;;;;;8.46;40.62;99835.88;5098664;28;20063;-77
2021/03/13 00:45:30;;;;;;;4.53;1.35;;;;;;;8.46;40.98;99840.47;5105180;28;20040;-79
2021/03/13 00:48:00;;;;;;;4.40;1.33;;;;;;;8.45;41.13;99833.28;5088933;28;20098;-80
2021/03/13 00:50:33;;;;;;;3.17;0.80;;;;;;;8.47;41.41;99831.28;5059412;28;20136;-83
2021/03/13 00:53:02;;;;;;;1.55;0.85;;;;;;;8.43;41.10;99833.41;5087170;28;20040;-81
2021/03/13 00:55:30;;;;;;;2.17;0.90;;;;;;;8.43;41.20;99827.06;5077059;28;20048;-80
2021/03/13 00:58:05;;;;;;;1.83;0.90;;;;;;;8.42;42.00;99820.75;5075584;28;20074;-80
2021/03/13 01:00:43;;;;;;;2.65;1.05;;;;;;;8.42;41.30;99825.34;5094343;28;20032;-80
2021/03/13 01:03:14;;;;;;;2.30;0.80;;;;;;;8.39;41.37;99814.75;5060224;28;20041;-79
2021/03/13 01:05:44;;;;;;;1.80;0.90;;;;;;;8.38;41.51;99805.72;5078804;28;20046;-80
2021/03/13 01:08:12;;;;;;;2.42;0.98;;;;;;;8.37;41.69;99797.69;5067488;28;20120;-80
2021/03/13 01:10:55;;;;;;;4.55;1.48;;;;;;;8.33;41.68;99802.53;5074940;28;20040;-80
2021/03/13 01:13:27;;;;;;;4.47;1.90;;;;;;;8.32;41.67;99794.50;5076841;28;20042;-80
2021/03/13 01:15:58;;;;;;;3.67;1.60;;;;;;;8.34;41.77;99793.38;5073272;28;20680;-81
2021/03/13 01:18:25;;;;;;;2.95;1.60;;;;;;;8.33;41.88;99791.66;5075693;28;20036;-79
2021/03/13 01:20:53;;;;;;;3.83;1.40;;;;;;;8.33;42.07;99785.34;5084696;28;20058;-79
2021/03/13 01:23:28;;;;;;;2.78;1.27;;;;;;;8.32;41.85;99770.84;5076171;28;20036;-78
2021/03/13 01:25:55;;;;;;;5.28;1.48;;;;;;;8.33;42.07;99760.81;5089552;28;20036;-77
2021/03/13 01:28:22;;;;;;;3.97;1.70;;;;;;;8.33;42.19;99755.34;5093579;28;20064;-77
2021/03/13 01:31:05;;;;;;;3.92;1.38;;;;;;;8.32;42.20;99746.31;5054517;28;20459;-76
2021/03/13 01:33:35;;;;;;;2.80;1.20;;;;;;;8.32;42.24;99740.88;5073247;28;20055;-76
2021/03/13 01:36:04;;;;;;;4.25;1.40;;;;;;;8.33;42.28;99739.00;5085176;28;20043;-76
2021/03/13 01:38:35;;;;;;;2.78;1.25;;;;;;;8.33;42.39;99728.09;5089656;28;20040;-77
2021/03/13 01:41:04;;;;;;;2.10;1.20;;;;;;;8.33;42.25;99734.44;5076087;28;20414;-77
2021/03/13 01:43:32;;;;;;;2.85;1.20;;;;;;;8.35;42.44;99721.53;5093068;28;20036;-77
2021/03/13 01:46:00;;;;;;;3.45;1.20;;;;;;;8.34;42.48;99719.78;5065220;28;20120;-76
2021/03/13 01:48:56;;;;;;;4.38;1.50;;;;;;;8.35;43.20;99724.25;5090165;28;20491;-77
2021/03/13 01:51:27;;;;;;;3.67;1.45;;;;;;;8.34;42.54;99703.44;5056978;28;20052;-77
2021/03/13 01:54:00;;;;;;;;;;;;;;;8.11;43.42;99704.78;5081317;28;20046;-76
2021/03/13 01:56:36;;;;;;;5.28;1.55;;;;;;;8.33;42.98;99699.00;5089292;28;19926;-77
2021/03/13 01:59:04;;;;;;;3.55;1.30;;;;;;;8.33;42.60;99679.94;5077151;28;20195;-77
2021/03/13 02:01:37;;;;;;;2.75;1.40;;;;;;;8.32;42.54;99675.47;5086957;28;20055;-76
2021/03/13 02:04:05;;;;;;;3.83;1.70;;;;;;;8.36;42.66;99671.47;5079392;28;20036;-76
2021/03/13 02:06:33;;;;;;;3.38;1.40;;;;;;;8.35;42.64;99666.16;5074223;28;20036;-77
2021/03/13 02:09:10;;;;;;;3.65;1.30;;;;;;;8.37;42.86;99659.56;5065685;28;20063;-76
2021/03/13 02:11:46;;;;;;;2.22;1.27;;;;;;;8.37;43.36;99654.13;5076406;28;20048;-77
2021/03/13 02:14:21;;;;;;;1.98;1.10;;;;;;;8.35;42.92;99647.09;5092465;28;20118;-76
2021/03/13 02:17:06;;;;;;;3.28;1.40;;;;;;;8.36;43.03;99648.81;5081883;28;20059;-77
2021/03/13 02:19:53;;;;;;;2.85;1.33;;;;;;;8.35;43.51;99630.75;5090274;28;20044;-77
2021/03/13 02:22:26;;;;;;;1.75;1.17;;;;;;;8.31;42.88;99624.75;5054803;28;20055;-78
2021/03/13 02:25:02;;;;;;;1.92;1.20;;;;;;;8.33;43.33;99619.13;5063031;28;20044;-77
2021/03/13 02:27:32;;;;;;;2.47;1.30;;;;;;;8.29;42.85;99607.69;5069558;28;20040;-77
2021/03/13 02:30:13;;;;;;;2.83;1.17;;;;;;;8.30;43.51;99606.69;5058860;28;20052;-76
2021/03/13 02:32:55;;;;;;;1.65;1.02;;;;;;;8.29;43.39;99595.94;5074389;28;20032;-76
2021/03/13 02:35:57;;;;;;;2.28;1.10;;;;;;;8.24;43.71;99594.47;5053988;28;20052;-76
2021/03/13 02:38:30;;;;;;;2.38;1.13;;;;;;;8.24;43.31;99589.03;5057726;28;20131;-76
2021/03/13 02:41:01;;;;;;;2.80;1.35;;;;;;;8.23;43.02;99570.09;5092979;28;20040;-77
2021/03/13 02:43:30;;;;;;;3.90;1.00;;;;;;;8.24;43.41;99566.38;5092685;28;20170;-77
2021/03/13 02:46:01;;;;;;;1.95;1.02;;;;;;;8.26;43.46;99564.38;5083704;28;20039;-76
2021/03/13 02:48:31;;;;;;;1.90;1.00;;;;;;;8.26;43.30;99553.47;5074599;28;20093;-76
2021/03/13 02:51:02;;;;;;;2.47;1.17;;;;;;;8.27;43.49;99555.19;5059862;28;20104;-77
2021/03/13 02:53:31;;;;;;;2.45;1.08;;;;;;;8.25;43.41;99549.91;5057154;28;20403;-77
2021/03/13 02:56:04;;;;;;;;;;;;;;;8.02;43.93;99544.97;5103519;28;20041;-77
2021/03/13 02:58:36;;;;;;;2.25;0.80;;;;;;;8.23;43.44;99534.69;5069046;28;19927;-77
2021/03/13 03:01:05;;;;;;;2.15;1.00;;;;;;;8.27;43.41;99527.97;5093090;28;20036;-77
2021/03/13 03:03:36;;;;;;;2.35;0.80;;;;;;;8.28;43.37;99526.94;5072334;28;20036;-76
2021/03/13 03:06:23;;;;;;;1.80;0.73;;;;;;;8.26;43.34;99512.63;5091490;28;20176;-76
2021/03/13 03:08:54;;;;;;;1.13;0.77;;;;;;;8.28;43.36;99504.28;5074824;28;20119;-77
2021/03/13 03:11:31;;;;;;;3.08;1.00;;;;;;;8.26;43.43;99504.44;5086188;28;20047;-76
2021/03/13 03:14:01;;;;;;;1.60;0.95;;;;;;;8.28;43.28;99501.56;5059708;28;20054;-76
2021/03/13 03:16:32;;;;;;;1.77;0.68;;;;;;;8.28;43.72;99488.81;5060628;28;20044;-77
2021/03/13 03:19:02;;;;;;;1.10;0.80;;;;;;;8.24;43.55;99485.50;5082308;28;20496;-77
2021/03/13 03:21:36;;;;;;;2.03;0.90;;;;;;;8.24;43.49;99477.34;5080709;28;20040;-77
2021/03/13 03:24:07;;;;;;;0.77;0.60;;;;;;;8.27;43.62;99465.28;5084616;28;20095;-76
2021/03/13 03:26:36;;;;;;;1.50;0.70;;;;;;;8.27;43.60;99459.84;5067188;28;20483;-76
2021/03/13 03:29:04;;;;;;;1.45;0.73;;;;;;;8.26;43.62;99455.41;5087631;28;20076;-76
2021/03/13 03:31:32;;;;;;;1.67;0.80;;;;;;;8.26;43.69;99447.22;5069018;28;20045;-75
2021/03/13 03:34:00;;;;;;;1.65;0.60;;;;;;;8.24;43.63;99433.75;5071872;28;20380;-75
2021/03/13 03:36:28;;;;;;;0.80;0.60;;;;;;;8.25;43.58;99424.56;5089866;28;20483;-76
2021/03/13 03:38:56;;;;;;;1.10;0.70;;;;;;;8.25;43.71;99418.28;5073661;28;20457;-77
2021/03/13 03:41:33;;;;;;;1.77;0.60;;;;;;;8.27;43.74;99413.53;5091410;28;20036;-77
2021/03/13 03:44:10;;;;;;;1.63;0.68;;;;;;;8.26;44.12;99409.94;5075980;28;20047;-77
2021/03/13 03:46:42;;;;;;;1.27;0.55;;;;;;;8.25;43.90;99400.06;5072657;28;20469;-77
2021/03/13 03:49:13;;;;;;;0.80;0.47;;;;;;;8.25;43.89;99391.03;5075199;28;20044;-77
2021/03/13 03:51:51;;;;;;;1.27;0.60;;;;;;;8.24;43.99;99379.28;5062499;28;20048;-77
2021/03/13 03:54:20;;;;;;;1.05;0.65;;;;;;;8.26;43.81;99368.22;5068352;28;20048;-77
2021/03/13 03:56:50;;;;;;;1.98;0.60;;;;;;;8.26;43.58;99373.69;5069926;28;20472;-78
2021/03/13 03:59:19;;;;;;;1.45;0.52;;;;;;;8.26;43.97;99373.69;5067256;28;20140;-78
2021/03/13 04:01:50;;;;;;;0.52;0.40;;;;;;;8.27;44.10;99367.22;5073139;28;20036;-78
2021/03/13 04:04:20;;;;;;;0.60;0.40;;;;;;;8.25;43.91;99352.88;5088824;28;20031;-78
2021/03/13 04:06:49;;;;;;;0.82;0.60;;;;;;;8.25;43.88;99351.03;5065255;28;20098;-77
2021/03/13 04:09:20;;;;;;;0.77;0.60;;;;;;;8.25;44.28;99336.53;5095340;28;20047;-76
2021/03/13 04:11:48;;;;;;;1.17;0.63;;;;;;;8.24;43.90;99338.41;5083665;28;20484;-77
2021/03/13 04:14:16;;;;;;;1.27;0.45;;;;;;;8.25;43.58;99342.00;5097092;28;20051;-76
2021/03/13 04:16:44;;;;;;;0.82;0.40;;;;;;;8.23;43.76;99333.09;5095530;28;20467;-76
2021/03/13 04:19:13;;;;;;;0.85;0.50;;;;;;;8.22;43.85;99318.66;5081751;28;20039;-76
2021/03/13 04:21:42;;;;;;;2.47;0.77;;;;;;;8.20;43.84;99309.78;5082515;28;20414;-75
2021/03/13 04:24:12;;;;;;;0.90;0.50;;;;;;;8.21;43.84;99316.09;5096076;28;20474;-75
2021/03/13 04:26:40;;;;;;;1.83;0.50;;;;;;;8.20;43.68;99306.19;5076778;28;20036;-74
2021/03/13 04:29:07;;;;;;;1.23;0.50;;;;;;;8.19;43.92;99299.03;5090480;28;20495;-75
2021/03/13 04:31:36;;;;;;;0.70;0.30;;;;;;;8.19;44.04;99283.56;5091786;28;20404;-75
2021/03/13 04:34:04;;;;;;;0.93;0.50;;;;;;;8.18;44.49;99281.84;5092813;28;20063;-75
2021/03/13 04:36:33;;;;;;;1.17;0.47;;;;;;;8.19;44.19;99272.66;5092766;28;20032;-75
2021/03/13 04:39:05;;;;;;;1.10;0.50;;;;;;;8.19;44.03;99264.47;5087720;28;20047;-76
2021/03/13 04:41:34;;;;;;;0.80;0.40;;;;;;;8.17;44.23;99260.19;5095492;28;20429;-76
2021/03/13 04:44:01;;;;;;;1.23;0.50;;;;;;;8.19;44.39;99244.56;5095663;28;20040;-76
2021/03/13 04:46:33;;;;;;;0.80;0.40;;;;;;;8.20;44.70;99238.97;5092681;28;20036;-76
2021/03/13 04:49:06;;;;;;;0.73;0.40;;;;;;;8.21;44.55;99220.75;5086511;28;20041;-76
2021/03/13 04:51:34;;;;;;;;;;;;;;;7.95;45.12;99215.22;5095370;28;20044;-76
2021/03/13 04:54:02;;;;;;;0.57;0.40;;;;;;;8.15;44.36;99213.19;5087097;28;19998;-76
2021/03/13 04:56:31;;;;;;;0.75;0.40;;;;;;;8.19;44.38;99212.72;5087208;28;20040;-77
2021/03/13 04:58:59;;;;;;;0.73;0.45;;;;;;;8.19;44.39;99199.13;5082100;28;20048;-77
2021/03/13 05:01:27;;;;;;;2.00;0.63;;;;;;;8.19;44.45;99190.09;5072000;28;20433;-78
2021/03/13 05:03:55;;;;;;;1.08;0.47;;;;;;;8.18;44.52;99181.06;5076211;28;20070;-77
2021/03/13 05:06:22;;;;;;;1.45;0.40;;;;;;;8.19;44.45;99173.75;5094008;28;20040;-77
2021/03/13 05:08:50;;;;;;;0.50;0.30;;;;;;;8.20;44.45;99173.59;5077197;28;20048;-77
2021/03/13 05:11:21;;;;;;;0.35;0.30;;;;;;;8.22;45.01;99159.81;5085026;28;20510;-77
2021/03/13 05:13:48;;;;;;;0.52;0.30;;;;;;;8.19;44.63;99163.69;5107557;28;20071;-77
2021/03/13 05:16:15;;;;;;;1.48;0.50;;;;;;;8.18;44.64;99151.09;5077232;28;20488;-77
2021/03/13 05:18:42;;;;;;;1.05;0.50;;;;;;;8.18;44.79;99153.81;5077123;28;20051;-77
2021/03/13 05:21:10;;;;;;;1.42;0.40;;;;;;;8.18;44.63;99142.91;5076865;28;20048;-77
2021/03/13 05:23:41;;;;;;;1.65;0.50;;;;;;;8.18;44.72;99140.19;5093194;28;20043;-78
2021/03/13 05:26:09;;;;;;;0.95;0.40;;;;;;;8.20;44.65;99138.19;5071768;28;20047;-79
2021/03/13 05:28:36;;;;;;;1.38;0.38;;;;;;;8.17;44.59;99134.91;5066546;28;20546;-79
2021/03/13 05:31:04;;;;;;;0.98;0.40;;;;;;;8.18;44.81;99126.59;5093959;28;20046;-79
2021/03/13 05:33:31;;;;;;;1.20;0.40;;;;;;;8.18;44.85;99121.13;5093616;28;20051;-79
2021/03/13 05:35:58;;;;;;;0.85;0.40;;;;;;;8.17;45.13;99126.72;5093328;28;20040;-79
2021/03/13 05:38:26;;;;;;;0.30;0.30;;;;;;;8.17;44.57;99111.25;5093625;28;20099;-79
2021/03/13 05:40:56;;;;;;;0.40;0.40;;;;;;;8.19;44.95;99100.19;5076154;28;20085;-79
2021/03/13 05:43:24;;;;;;;1.88;0.70;;;;;;;8.19;45.09;99089.31;5093730;28;20040;-78
2021/03/13 05:45:52;;;;;;;0.77;0.30;;;;;;;8.18;44.92;99076.69;5093670;28;20043;-78
2021/03/13 05:48:22;;;;;;;0.98;0.40;;;;;;;8.20;45.23;99082.84;5081089;28;20491;-78
2021/03/13 05:50:50;;;;;;;1.65;0.47;;;;;;;8.18;44.95;99077.56;5079222;28;20552;-78
2021/03/13 05:53:17;;;;;;;0.30;0.30;;;;;;;8.18;45.06;99061.22;5077091;28;20052;-78
2021/03/13 05:55:45;;;;;;;0.30;0.30;;;;;;;8.19;44.99;99054.75;5073972;28;20048;-78
2021/03/13 05:58:13;;;;;;;0.55;0.43;;;;;;;8.20;45.12;99050.16;5092077;28;20042;-78
2021/03/13 06:00:41;;;;;;;1.63;0.50;;;;;;;8.22;45.08;99053.59;5086097;28;20427;-79
2021/03/13 06:03:35;;;;;;;0.47;0.30;;;;;;;8.19;45.96;99030.25;5088600;28;20048;-79
2021/03/13 06:06:06;;;;;;;1.23;0.40;;;;;;;8.18;44.91;99036.69;5108424;28;20074;-79
2021/03/13 06:08:36;;;;;;;1.20;0.40;;;;;;;8.21;45.16;99041.84;5092821;28;20040;-78
2021/03/13 06:11:03;;;;;;;0.60;0.30;;;;;;;8.20;44.99;99026.50;5094011;28;20043;-78
2021/03/13 06:13:33;;;;;;;1.65;0.28;;;;;;;8.23;45.18;99028.03;5093684;28;20426;-77
2021/03/13 06:16:02;;;;;;;0.52;0.30;;;;;;;8.22;45.00;99018.19;5093244;28;20093;-76
2021/03/13 06:18:51;;;;;;;0.95;0.30;;;;;;;8.25;45.45;99028.72;5076519;28;20395;-77
2021/03/13 06:21:23;;;;;;;0.82;0.50;;;;;;;8.23;45.55;99023.44;5077240;28;20032;-76
2021/03/13 06:23:57;;;;;;;0.88;0.50;;;;;;;8.22;45.70;99019.03;5098097;28;20093;-76
2021/03/13 06:26:25;;;;;;;0.90;0.40;;;;;;;8.23;45.27;98998.91;5101295;28;20465;-75
2021/03/13 06:28:55;;;;;;;0.40;0.40;;;;;;;8.26;45.29;98997.75;5092227;28;20122;-77
2021/03/13 06:31:25;;;;;;;1.58;0.50;;;;;;;8.26;45.37;98995.88;5085674;28;20051;-76
2021/03/13 06:33:53;;;;;;;2.00;0.40;;;;;;;8.28;45.23;98990.28;5102452;28;20032;-77
2021/03/13 06:36:25;;;;;;;1.05;0.60;;;;;;;8.30;45.43;98988.25;5094459;28;20043;-76
2021/03/13 06:38:55;;;;;;;0.98;0.60;;;;;;;8.30;45.27;98984.66;5074061;28;20097;-77
2021/03/13 06:41:24;;;;;;;1.35;0.40;;;;;;;8.32;45.34;98978.03;5092419;28;20044;-77
2021/03/13 06:43:53;;;;;;;0.88;0.30;;;;;;;8.34;45.38;98980.59;5065081;28;20114;-78
2021/03/13 06:46:22;;;;;;;1.35;0.30;;;;;;;8.35;45.46;98982.28;5088816;28;20434;-77
2021/03/13 06:48:52;;;;;;;1.30;0.50;;;;;;;8.35;45.53;98985.03;5076847;28;20079;-78
2021/03/13 06:51:25;;;;;;;0.70;0.40;;;;;;;8.37;45.33;98983.84;5091049;28;20051;-79
2021/03/13 06:54:06;;;;;;;;;;;;;;;8.11;46.27;98972.16;5090879;28;20032;-78
2021/03/13 06:56:37;;;;;;;2.08;0.60;;;;;;;8.32;45.62;98967.13;5092693;28;20346;-79
2021/03/13 06:59:18;;;;;;;1.33;0.40;;;;;;;8.38;46.10;98960.19;5074968;28;20064;-78
2021/03/13 07:01:46;;;;;;;0.60;0.50;;;;;;;8.35;45.50;98969.53;5074589;28;20506;-79
2021/03/13 07:04:28;;;;;;;1.08;0.43;;;;;;;8.37;46.13;98950.31;5092975;28;20036;-79
2021/03/13 07:06:56;;;;;;;0.70;0.40;;;;;;;8.37;45.54;98962.06;5080570;28;20048;-78
2021/03/13 07:09:46;;;;;;;0.70;0.45;;;;;;;8.38;46.07;98950.13;5073219;28;20504;-79
2021/03/13 07:12:27;;;;;;;0.88;0.50;;;;;;;8.40;45.92;98950.81;5075287;28;20447;-79
2021/03/13 07:14:56;;;;;;;0.70;0.30;;;;;;;8.39;45.56;98962.75;5083818;28;20059;-77
2021/03/13 07:17:24;;;;;;;1.65;0.55;;;;;;;8.41;45.49;98962.56;5093111;28;20550;-78
2021/03/13 07:19:52;;;;;;;1.27;0.52;;;;;;;8.39;45.84;98973.66;5091089;28;20135;-77
2021/03/13 07:22:22;;;;;;;1.98;0.60;;;;;;;8.42;45.57;98992.38;5095492;28;20048;-75
2021/03/13 07:24:54;;;;;;;1.75;0.70;;;;;;;8.39;45.93;98998.16;5083408;28;20042;-74
2021/03/13 07:27:22;;;;;;;0.90;0.60;;;;;;;8.40;45.97;99035.28;5091505;28;20364;-74
2021/03/13 07:29:51;;;;;;;1.27;0.30;;;;;;;8.42;45.98;99060.50;5090210;28;20043;-73
2021/03/13 07:32:23;;;;;;;1.92;0.40;;;;;;;8.39;46.67;99081.78;5091059;28;20036;-75
2021/03/13 07:34:57;;;;;;;1.27;0.50;;;;;;;8.39;46.69;99101.72;5089686;28;20052;-74
2021/03/13 07:37:24;;;;;;;;;;;;;;;8.08;48.44;99089.56;5096470;28;20068;-74
2021/03/13 07:39:53;;;;;;;1.33;0.50;;;;;;;8.24;45.90;99073.31;5087313;28;20351;-75
2021/03/13 07:42:23;;;;;;;1.80;0.50;;;;;;;8.24;45.16;99059.69;5088695;28;20044;-76
2021/03/13 07:44:50;;;;;;;2.92;0.55;;;;;;;8.19;44.81;99053.91;5081959;28;20056;-76
2021/03/13 07:47:19;;;;;;;1.73;0.43;;;;;;;8.16;44.80;99065.09;5067491;28;20036;-76
2021/03/13 07:49:47;;;;;;;1.75;0.38;;;;;;;8.10;44.30;99019.44;5081861;28;20036;-76
2021/03/13 07:52:19;;;;;;;1.40;0.50;;;;;;;8.03;43.68;99026.56;5083821;28;20055;-76
2021/03/13 07:54:49;;;;;;;2.33;0.65;;;;;;;7.97;43.92;99006.28;5088742;28;20040;-77
2021/03/13 07:57:19;;;;;;;1.08;0.50;;;;;;;7.90;43.72;99026.97;5062957;28;20082;-76
2021/03/13 07:59:48;;;;;;;2.05;0.65;;;;;;;7.87;43.85;99025.44;5073528;28;20485;-78
2021/03/13 08:02:36;;;;;;;1.92;0.50;;;;;;;7.82;43.55;99030.50;5078079;28;20073;-78
2021/03/13 08:05:06;;;;;;;1.73;0.60;;;;;;;7.75;43.98;99031.28;5074162;28;20044;-76
2021/03/13 08:07:54;;;;;;;0.90;0.60;;;;;;;7.71;43.33;99043.53;5051777;28;20039;-77
2021/03/13 08:10:45;;;;;;;1.50;0.60;;;;;;;7.68;43.47;99052.84;5070082;28;20139;-77
2021/03/13 08:13:35;;;;;;;0.98;0.57;;;;;;;7.61;44.06;99040.91;5087188;28;20053;-72
2021/03/13 08:16:03;;;;;;;1.85;0.52;;;;;;;7.60;44.30;99046.50;5088578;28;20127;-76
2021/03/13 08:18:42;;;;;;;1.73;0.50;;;;;;;7.64;43.76;99058.78;5055403;28;20055;-76
2021/03/13 08:21:44;;;;;;;1.77;0.60;;;;;;;7.62;44.09;99058.94;5094925;28;20105;-77
2021/03/13 08:24:13;;;;;;;1.05;0.52;;;;;;;7.58;44.13;99060.25;5072101;28;20075;-77
2021/03/13 08:27:11;;;;;;;1.35;0.60;;;;;;;7.57;44.02;99055.00;5056909;28;20063;-78
2021/03/13 08:29:51;;;;;;;2.85;0.63;;;;;;;7.61;45.03;99065.38;5083817;28;20056;-75
2021/03/13 08:33:03;;;;;;;2.22;0.70;;;;;;;7.64;44.93;99053.34;5088855;28;20479;-75
2021/03/13 08:35:42;;;;;;;1.90;0.77;;;;;;;7.67;46.01;99062.03;5090291;28;20126;-75
2021/03/13 08:38:13;;;;;;;1.65;0.70;;;;;;;7.77;45.55;99064.66;5097329;28;20051;-75
2021/03/13 08:40:49;;;;;;;1.90;0.60;;;;;;;7.88;45.89;99065.28;5092434;28;20367;-74
2021/03/13 08:43:42;;;;;;;1.77;0.60;;;;;;;7.97;45.12;99051.72;5070565;28;20047;-75
2021/03/13 08:46:45;;;;;;;2.75;0.80;;;;;;;8.07;45.78;99063.34;5091343;28;20491;-76
2021/03/13 08:49:29;;;;;;;2.38;0.85;;;;;;;8.18;45.49;99063.94;5080470;28;20054;-76
2021/03/13 08:52:24;;;;;;;1.52;0.70;;;;;;;8.33;44.79;99071.50;5092897;28;20364;-76
2021/03/13 08:57:57;;;;;;;2.38;0.80;;;;;;;8.51;44.07;99065.00;5072067;28;20407;-82
2021/03/13 09:00:24;;;;;;;1.35;0.70;;;;;;;8.58;43.90;99062.47;5028835;28;20101;-81
2021/03/13 09:02:52;;;;;;;2.45;0.80;;;;;;;8.60;43.58;99066.75;5061274;28;20167;-81
2021/03/13 09:05:22;;;;;;;2.63;1.00;;;;;;;8.62;43.21;99059.28;5095594;28;20071;-82
2021/03/13 09:07:52;;;;;;;1.65;0.80;;;;;;;8.61;42.90;99076.63;5093940;28;20097;-83
2021/03/13 09:10:21;;;;;;;1.70;0.80;;;;;;;8.57;42.94;99060.75;5094636;28;20071;-81
2021/03/13 09:12:49;;;;;;;1.25;0.60;;;;;;;8.55;42.94;99079.16;5088898;28;20044;-81
2021/03/13 09:15:19;;;;;;;1.70;0.68;;;;;;;8.55;42.76;99084.63;5062113;28;20395;-81
2021/03/13 09:17:47;;;;;;;2.17;0.80;;;;;;;8.47;42.94;99066.34;5095570;28;20125;-81
2021/03/13 09:20:17;;;;;;;0.90;0.47;;;;;;;8.48;42.82;99064.47;5093476;28;20032;-81
2021/03/13 09:22:46;;;;;;;3.28;0.80;;;;;;;8.44;42.75;99063.09;5066867;28;20059;-82
2021/03/13 09:25:17;;;;;;;3.92;0.80;;;;;;;8.39;42.99;99044.50;5076064;28;20067;-81
2021/03/13 09:27:45;;;;;;;2.30;0.95;;;;;;;8.39;42.79;99052.66;5095379;28;20040;-82
2021/03/13 09:30:19;;;;;;;2.70;0.80;;;;;;;8.40;42.77;99050.75;5093746;28;20040;-80
2021/03/13 09:32:49;;;;;;;2.25;0.80;;;;;;;8.38;42.88;99044.66;5055179;28;20060;-79
2021/03/13 09:35:22;;;;;;;2.75;1.00;;;;;;;8.37;42.91;99053.84;5094761;28;20044;-80
2021/03/13 09:37:52;;;;;;;3.43;1.00;;;;;;;8.32;42.79;99046.13;5076653;28;20048;-79
2021/03/13 09:40:21;;;;;;;4.70;1.02;;;;;;;8.34;42.81;99035.94;5090396;28;20086;-81
2021/03/13 09:42:50;;;;;;;4.43;1.25;;;;;;;8.31;42.64;99055.34;5071029;28;20067;-80
2021/03/13 09:45:23;;;;;;;2.85;0.88;;;;;;;8.35;42.81;99045.81;5081001;28;20038;-80
2021/03/13 09:47:56;;;;;;;2.28;0.80;;;;;;;8.34;42.89;99052.28;5093747;28;20048;-80
2021/03/13 09:50:28;;;;;;;7.63;1.20;;;;;;;8.35;42.57;99039.50;5092786;28;20036;-82
2021/03/13 09:52:56;;;;;;;4.30;0.80;;;;;;;8.29;42.61;99035.56;5092868;28;20043;-81
2021/03/13 09:55:27;;;;;;;2.83;0.95;;;;;;;8.31;42.43;99036.28;5075314;28;20040;-83
2021/03/13 09:57:57;;;;;;;2.50;0.93;;;;;;;8.36;42.38;99035.78;5075485;28;20097;-81
2021/03/13 10:00:27;;;;;;;3.33;1.15;;;;;;;8.38;42.52;99074.63;5093401;28;20044;-80
2021/03/13 10:02:55;;;;;;;3.60;1.40;;;;;;;8.39;42.56;99041.75;5081511;28;20048;-81
2021/03/13 10:05:26;;;;;;;2.95;0.93;;;;;;;8.42;42.68;99051.47;5060096;28;20067;-82
2021/03/13 10:07:53;;;;;;;3.28;1.00;;;;;;;8.42;42.59;99052.31;5073253;28;20075;-82
2021/03/13 10:10:22;;;;;;;4.18;1.25;;;;;;;8.40;42.43;99058.94;5092447;28;20119;-81
2021/03/13 10:12:52;;;;;;;2.75;0.90;;;;;;;8.43;42.25;99053.16;5072692;28;20047;-81
2021/03/13 10:15:21;;;;;;;4.50;1.20;;;;;;;8.41;42.12;99050.59;5095407;28;20040;-80
2021/03/13 10:17:57;;;;;;;2.92;1.10;;;;;;;8.48;41.67;99059.00;5059618;28;20137;-80
2021/03/13 10:20:27;;;;;;;2.83;1.20;;;;;;;8.47;41.84;99052.72;5075240;28;20028;-81
2021/03/13 10:22:56;;;;;;;6.55;1.92;;;;;;;8.48;42.07;99064.47;5101461;28;20039;-80
2021/03/13 10:25:23;;;;;;;5.07;1.23;;;;;;;8.48;41.94;99070.75;5058214;28;20474;-80
2021/03/13 10:27:50;;;;;;;4.60;1.13;;;;;;;8.49;41.68;99063.44;5075436;28;20063;-80
2021/03/13 10:30:26;;;;;;;7.50;2.22;;;;;;;8.50;41.51;99057.84;5078298;28;20144;-81
2021/03/13 10:32:54;;;;;;;3.78;1.40;;;;;;;8.52;41.58;99039.47;5089687;28;20093;-80
2021/03/13 10:35:26;;;;;;;3.55;1.60;;;;;;;8.55;41.68;99052.78;5073677;28;20044;-80
2021/03/13 10:38:00;;;;;;;4.28;1.40;;;;;;;8.59;41.13;99061.47;5101270;28;20060;-80
2021/03/13 10:40:39;;;;;;;4.00;1.55;;;;;;;8.64;40.78;99054.50;5093004;28;20065;-80
2021/03/13 10:43:15;;;;;;;6.90;1.42;;;;;;;8.72;40.88;99050.97;5093919;28;20062;-79
2021/03/13 10:45:45;;;;;;;4.18;1.30;;;;;;;8.75;41.30;99044.31;5092441;28;20044;-80
2021/03/13 10:48:14;;;;;;;5.65;1.70;;;;;;;8.82;41.13;99051.66;5092339;28;20552;-80
2021/03/13 10:50:43;;;;;;;4.93;1.50;;;;;;;8.93;40.88;99045.91;5092969;28;20158;-80
2021/03/13 10:53:28;;;;;;;5.50;1.80;;;;;;;8.94;38.94;99041.31;5092831;28;20376;-79
2021/03/13 10:55:56;;;;;;;6.72;1.70;;;;;;;9.00;40.72;99051.56;5055769;28;20040;-80
2021/03/13 10:58:25;;;;;;;7.32;1.60;;;;;;;9.05;40.33;99037.44;5084384;28;20036;-81
2021/03/13 11:00:53;;;;;;;5.35;1.73;;;;;;;9.07;40.24;99047.13;5084886;28;20047;-79
2021/03/13 11:03:21;;;;;;;6.55;1.77;;;;;;;9.10;39.98;99052.25;5068631;28;20423;-80
2021/03/13 11:05:51;;;;;;;4.40;1.45;;;;;;;9.13;40.24;99053.81;5079384;28;20131;-81
2021/03/13 11:08:20;;;;;;;5.22;1.65;;;;;;;9.12;40.14;99042.06;5074874;28;20097;-80
2021/03/13 11:10:47;;;;;;;6.18;1.70;;;;;;;9.13;40.02;99051.09;5092401;28;20036;-80
2021/03/13 11:13:15;;;;;;;4.78;1.40;;;;;;;9.15;39.98;99049.03;5085946;28;20039;-80
2021/03/13 11:15:42;;;;;;;5.18;1.73;;;;;;;9.14;39.71;99058.22;5074603;28;20047;-79
2021/03/13 11:18:09;;;;;;;5.20;1.48;;;;;;;9.16;39.58;99070.69;5100758;28;20043;-78
2021/03/13 11:20:38;;;;;;;5.65;1.58;;;;;;;9.21;39.54;99054.69;5072791;28;20032;-79
2021/03/13 11:23:07;;;;;;;6.75;1.58;;;;;;;9.23;39.68;99062.69;5099939;28;20517;-79
2021/03/13 11:25:34;;;;;;;5.53;1.33;;;;;;;9.24;39.64;99045.28;5076209;28;20469;-80
2021/03/13 11:28:05;;;;;;;4.85;1.60;;;;;;;9.27;39.39;99028.59;5091697;28;20123;-79
2021/03/13 11:30:33;;;;;;;5.70;1.63;;;;;;;9.31;39.48;99022.63;5105119;28;20063;-80
2021/03/13 11:33:01;;;;;;;5.22;1.40;;;;;;;9.32;39.10;99042.56;5092898;28;20119;-80
2021/03/13 11:35:29;;;;;;;5.68;1.70;;;;;;;9.39;39.14;99049.06;5076340;28;20048;-79
2021/03/13 11:37:57;;;;;;;4.47;1.05;;;;;;;9.48;38.82;99047.19;5065999;28;20459;-79
2021/03/13 11:40:25;;;;;;;5.00;1.30;;;;;;;9.48;38.31;99039.88;5088603;28;20051;-79
2021/03/13 11:42:55;;;;;;;6.18;1.88;;;;;;;9.51;38.70;99034.06;5059331;28;20492;-79
2021/03/13 11:45:22;;;;;;;4.18;1.52;;;;;;;9.55;38.40;99045.50;5080474;28;20104;-79
2021/03/13 11:47:50;;;;;;;4.35;1.38;;;;;;;9.62;38.45;99044.66;5075209;28;20040;-78
2021/03/13 11:50:19;;;;;;;4.43;1.40;;;;;;;9.68;38.35;99040.38;5092009;28;20066;-79
2021/03/13 11:52:46;;;;;;;5.68;1.40;;;;;;;9.69;38.50;99026.59;5091543;28;20037;-79
2021/03/13 11:55:15;;;;;;;5.70;1.50;;;;;;;9.75;38.10;99039.56;5081879;28;20040;-77
2021/03/13 11:57:43;;;;;;;7.38;1.50;;;;;;;9.76;38.26;99044.00;5092517;28;20039;-78
2021/03/13 12:00:11;;;;;;;7.35;1.60;;;;;;;9.74;38.19;99035.13;5071140;28;20115;-78
2021/03/13 12:02:40;;;;;;;9.35;1.55;;;;;;;9.82;37.95;99044.34;5074914;28;20046;-77
2021/03/13 12:05:08;;;;;;;6.10;1.65;;;;;;;9.83;38.03;99032.38;5097143;28;20435;-77
2021/03/13 12:07:40;;;;;;;5.32;1.63;;;;;;;9.87;37.99;99040.09;5106608;28;20044;-78